Time;durP1;ratioP1;P1;durP2;ratioP2;P2;SDS_P1;SDS_P2;PMS_P1;PMS_P2;Temp;Humidity;BMP_temperature;BMP_pressure;BME280_temperature;BME280_humidity;BME280_pressure;Samples;Min_cycle;Max_cycle;Signal;HPM_P1;HPM_P2
2023/01/15 00:01:02;;;;;;;;;;;;;;;3.82;100.00;100389.47;5054230;28;1061;-59
2023/01/15 00:03:29;;;;;;;;;;;;;;;3.86;100.00;100384.91;5053763;28;1269;-59
2023/01/15 00:05:56;;;;;;;;;;;;;;;3.87;100.00;100386.50;5053939;28;929;-59
2023/01/15 00:08:22;;;;;;;;;;;;;;;3.86;100.00;100387.66;5053990;28;887;-59
2023/01/15 00:10:49;;;;;;;;;;;;;;;3.78;100.00;100390.50;5053912;28;832;-59
2023/01/15 00:13:15;;;;;;;;;;;;;;;3.67;100.00;100393.69;5053681;28;1914;-59
2023/01/15 00:15:42;;;;;;;;;;;;;;;3.71;100.00;100393.00;5053830;28;872;-59
2023/01/15 00:18:09;;;;;;;;;;;;;;;3.75;100.00;100402.09;5053706;28;1093;-59
2023/01/15 00:20:36;;;;;;;;;;;;;;;3.79;100.00;100392.88;5053653;28;968;-59
2023/01/15 00:23:02;;;;;;;;;;;;;;;3.83;100.00;100402.00;5053732;28;844;-59
2023/01/15 00:28:13;;;;;;;;;;;;;;;3.86;100.00;100403.22;5053931;28;622;-59
2023/01/15 00:30:41;;;;;;;;;;;;;;;3.83;100.00;100404.72;5035568;28;1484;-59
2023/01/15 00:33:08;;;;;;;;;;;;;;;3.87;100.00;100400.16;5054115;28;764;-59
2023/01/15 00:35:34;;;;;;;;;;;;;;;3.92;100.00;100403.81;5053426;28;1941;-59
2023/01/15 00:38:01;;;;;;;;;;;;;;;3.92;100.00;100396.41;5053680;28;837;-59
2023/01/15 00:40:28;;;;;;;;;;;;;;;3.91;100.00;100394.03;5052767;28;844;-59
2023/01/15 00:42:54;;;;;;;;;;;;;;;3.92;100.00;100398.34;5052870;28;807;-59
2023/01/15 00:45:22;;;;;;;;;;;;;;;3.92;100.00;100396.41;5053286;28;832;-59
2023/01/15 00:47:49;;;;;;;;;;;;;;;3.88;100.00;100390.84;5053039;28;962;-59
2023/01/15 00:50:15;;;;;;;;;;;;;;;3.86;100.00;100392.28;5035239;28;1689;-59
2023/01/15 00:52:42;;;;;;;;;;;;;;;3.85;100.00;100391.50;5052911;28;860;-59
2023/01/15 00:55:09;;;;;;;;;;;;;;;3.84;100.00;100387.19;5052955;28;1897;-59
2023/01/15 00:57:35;;;;;;;;;;;;;;;3.83;100.00;100390.25;5053028;28;816;-59
2023/01/15 01:00:03;;;;;;;;;;;;;;;3.83;100.00;100385.59;5052851;28;959;-59
2023/01/15 01:02:29;;;;;;;;;;;;;;;3.83;100.00;100385.59;5052933;28;808;-59
2023/01/15 01:04:56;;;;;;;;;;;;;;;3.83;100.00;100379.31;5052612;28;1437;-59
2023/01/15 01:07:22;;;;;;;;;;;;;;;3.85;100.00;100385.25;5052756;28;954;-59
2023/01/15 01:09:49;;;;;;;;;;;;;;;3.88;100.00;100392.75;5034885;28;898;-59
2023/01/15 01:12:16;;;;;;;;;;;;;;;3.83;100.00;100380.09;5052538;28;864;-59
2023/01/15 01:14:43;;;;;;;;;;;;;;;3.84;100.00;100378.97;5052593;28;1914;-59
2023/01/15 01:17:11;;;;;;;;;;;;;;;3.86;100.00;100376.72;5052518;28;891;-59
2023/01/15 01:19:38;;;;;;;;;;;;;;;3.87;100.00;100380.22;5052457;28;939;-59
2023/01/15 01:22:04;;;;;;;;;;;;;;;3.91;100.00;100388.56;5052535;28;852;-59
2023/01/15 01:24:30;;;;;;;;;;;;;;;3.85;100.00;100388.78;5052421;28;911;-59
2023/01/15 01:26:57;;;;;;;;;;;;;;;3.84;100.00;100381.72;5052495;28;832;-59
2023/01/15 01:29:24;;;;;;;;;;;;;;;3.86;100.00;100376.72;5052374;28;824;-59
2023/01/15 01:31:51;;;;;;;;;;;;;;;3.83;100.00;100379.31;5052286;28;824;-59
2023/01/15 01:34:17;;;;;;;;;;;;;;;3.85;100.00;100371.56;5052235;28;1979;-59
2023/01/15 01:36:44;;;;;;;;;;;;;;;3.84;100.00;100378.97;5052255;28;882;-58
2023/01/15 01:39:14;;;;;;;;;;;;;;;3.85;100.00;100377.84;5052225;28;844;-59
2023/01/15 01:41:40;;;;;;;;;;;;;;;3.82;100.00;100374.97;5052071;28;855;-59
2023/01/15 01:44:27;;;;;;;;;;;;;;;3.75;100.00;100382.97;5052199;28;888;-59
2023/01/15 01:46:54;;;;;;;;;;;;;;;3.82;100.00;100358.56;5052049;28;871;-59
2023/01/15 01:49:21;;;;;;;;;;;;;;;3.85;100.00;100379.78;5052091;28;864;-59
2023/01/15 01:52:08;;;;;;;;;;;;;;;3.88;100.00;100371.69;5051804;28;836;-59
2023/01/15 01:54:37;;;;;;;;;;;;;;;3.90;100.00;100379.53;5051614;28;2269;-59
2023/01/15 01:57:04;;;;;;;;;;;;;;;3.92;100.00;100381.94;5051878;28;856;-59
2023/01/15 01:59:31;;;;;;;;;;;;;;;3.94;100.00;100379.66;5051812;28;867;-59
2023/01/15 02:01:58;;;;;;;;;;;;;;;3.94;100.00;100388.66;5052122;28;1127;-58
2023/01/15 02:04:26;;;;;;;;;;;;;;;3.95;100.00;100384.78;5051670;28;1294;-59
2023/01/15 02:06:53;;;;;;;;;;;;;;;3.95;100.00;100384.78;5051801;28;875;-59
2023/01/15 02:09:19;;;;;;;;;;;;;;;3.94;100.00;100379.66;5051535;28;875;-59
2023/01/15 02:11:47;;;;;;;;;;;;;;;3.82;100.00;100384.00;5051577;28;820;-59
2023/01/15 02:14:20;;;;;;;;;;;;;;;3.70;100.00;100375.78;5051574;28;1914;-58
2023/01/15 02:16:51;;;;;;;;;;;;;;;3.70;100.00;100380.47;5033773;28;857;-59
2023/01/15 02:19:36;;;;;;;;;;;;;;;3.71;100.00;100376.59;5051544;28;860;-59
2023/01/15 02:22:10;;;;;;;;;;;;;;;3.70;100.00;100366.81;5051762;28;876;-59
2023/01/15 02:24:54;;;;;;;;;;;;;;;3.69;100.00;100376.91;5051567;28;812;-59
2023/01/15 02:27:22;;;;;;;;;;;;;;;3.72;100.00;100373.50;5051510;28;958;-59
2023/01/15 02:30:08;;;;;;;;;;;;;;;3.71;100.00;100369.16;5051356;28;861;-59
2023/01/15 02:32:41;;;;;;;;;;;;;;;3.75;100.00;100374.75;5051433;28;860;-59
2023/01/15 02:35:40;;;;;;;;;;;;;;;3.79;100.00;100381.94;5051482;28;1890;-58
2023/01/15 02:38:10;;;;;;;;;;;;;;;3.81;100.00;100371.44;5007901;28;1406;-59
2023/01/15 02:40:38;;;;;;;;;;;;;;;3.80;100.00;100369.88;5051098;28;872;-59
2023/01/15 02:43:05;;;;;;;;;;;;;;;3.82;100.00;100370.31;5051397;28;857;-59
2023/01/15 02:45:35;;;;;;;;;;;;;;;3.82;100.00;100364.84;5051286;28;860;-59
2023/01/15 02:48:07;;;;;;;;;;;;;;;3.82;100.00;100373.06;5033380;28;939;-59
2023/01/15 02:50:39;;;;;;;;;;;;;;;3.84;100.00;100370.78;5051193;28;1024;-59
2023/01/15 02:53:07;;;;;;;;;;;;;;;3.73;100.00;100386.03;5051242;28;964;-59
2023/01/15 02:55:40;;;;;;;;;;;;;;;3.78;100.00;100374.09;5050941;28;1941;-59
2023/01/15 02:58:09;;;;;;;;;;;;;;;3.79;100.00;100381.94;5051173;28;859;-59
2023/01/15 03:00:38;;;;;;;;;;;;;;;3.80;100.00;100380.03;5051268;28;1030;-59
2023/01/15 03:03:07;;;;;;;;;;;;;;;3.84;100.00;100384.47;5050945;28;1227;-59
2023/01/15 03:05:44;;;;;;;;;;;;;;;3.87;100.00;100380.22;5054071;28;915;-59
2023/01/15 03:08:11;;;;;;;;;;;;;;;3.88;100.00;100373.59;5055037;28;1076;-59
2023/01/15 03:10:42;;;;;;;;;;;;;;;3.86;100.00;100384.09;5055298;28;852;-59
2023/01/15 03:13:14;;;;;;;;;;;;;;;3.84;100.00;100381.72;5054945;28;887;-59
2023/01/15 03:18:32;;;;;;;;;;;;;;;3.76;100.00;100387.31;5055229;28;614;-58
2023/01/15 03:21:03;;;;;;;;;;;;;;;3.72;100.00;100386.41;5054685;28;875;-59
2023/01/15 03:23:34;;;;;;;;;;;;;;;3.67;100.00;100384.69;5054869;28;839;-59
2023/01/15 03:26:00;;;;;;;;;;;;;;;3.66;100.00;100385.81;5054626;28;956;-59
2023/01/15 03:28:30;;;;;;;;;;;;;;;3.65;100.00;100385.03;5054569;28;860;-59
2023/01/15 03:30:57;;;;;;;;;;;;;;;3.62;100.00;100388.41;5054901;28;832;-58
2023/01/15 03:33:25;;;;;;;;;;;;;;;3.56;100.00;100392.50;5054713;28;1890;-59
2023/01/15 03:35:57;;;;;;;;;;;;;;;3.52;100.00;100393.53;5037281;28;875;-59
2023/01/15 03:38:34;;;;;;;;;;;;;;;3.48;100.00;100396.19;5054535;28;851;-59
2023/01/15 03:41:03;;;;;;;;;;;;;;;3.42;100.00;100390.13;5054391;28;887;-59
2023/01/15 03:43:49;;;;;;;;;;;;;;;3.34;100.00;100392.97;5054634;28;844;-58
2023/01/15 03:46:22;;;;;;;;;;;;;;;3.31;100.00;100388.16;5054264;28;1020;-59
2023/01/15 03:48:48;;;;;;;;;;;;;;;3.25;100.00;100385.66;5054597;28;804;-59
2023/01/15 03:51:19;;;;;;;;;;;;;;;3.27;100.00;100385.31;5054414;28;926;-59
2023/01/15 03:53:50;;;;;;;;;;;;;;;3.25;100.00;100380.19;5054050;28;1897;-59
2023/01/15 03:56:35;;;;;;;;;;;;;;;3.27;100.00;100382.59;5054095;28;852;-59
2023/01/15 03:59:06;;;;;;;;;;;;;;;3.27;100.00;100382.59;5054053;28;1073;-59
2023/01/15 04:01:36;;;;;;;;;;;;;;;3.29;100.00;100388.53;5054270;28;974;-59
2023/01/15 04:04:03;;;;;;;;;;;;;;;3.32;100.00;100389.78;5053867;28;1222;-59
2023/01/15 04:06:32;;;;;;;;;;;;;;;3.34;100.00;100382.81;5054011;28;875;-58
2023/01/15 04:08:59;;;;;;;;;;;;;;;3.38;100.00;100388.41;5053820;28;836;-59
2023/01/15 04:11:26;;;;;;;;;;;;;;;3.42;100.00;100400.25;5053645;28;880;-59
2023/01/15 04:13:53;;;;;;;;;;;;;;;3.43;100.00;100399.91;5053784;28;1906;-59
2023/01/15 04:16:28;;;;;;;;;;;;;;;3.44;100.00;100390.59;5052368;28;899;-59
2023/01/15 04:18:55;;;;;;;;;;;;;;;3.50;100.00;100390.34;5053939;28;820;-59
2023/01/15 04:21:22;;;;;;;;;;;;;;;3.51;100.00;100397.44;5053923;28;852;-59
2023/01/15 04:23:49;;;;;;;;;;;;;;;3.53;100.00;100397.88;5053765;28;880;-58
2023/01/15 04:26:15;;;;;;;;;;;;;;;3.54;100.00;100397.56;5053862;28;847;-59
2023/01/15 04:28:41;;;;;;;;;;;;;;;3.56;100.00;100403.44;5053803;28;832;-59
2023/01/15 04:31:08;;;;;;;;;;;;;;;3.56;100.00;100395.25;5054225;28;796;-59
2023/01/15 04:33:35;;;;;;;;;;;;;;;3.55;100.00;100392.88;5053839;28;1878;-59
2023/01/15 04:36:02;;;;;;;;;;;;;;;3.54;100.00;100394.81;5054139;28;800;-59
2023/01/15 04:38:29;;;;;;;;;;;;;;;3.57;100.00;100396.84;5053693;28;836;-59
2023/01/15 04:46:28;;;;;;;;;;;;;;;3.51;100.00;100403.69;5053207;28;627;-59
2023/01/15 04:48:55;;;;;;;;;;;;;;;3.51;100.00;100402.91;5053280;28;824;-59
2023/01/15 04:51:22;;;;;;;;;;;;;;;3.50;100.00;100409.47;5053107;28;828;-59
2023/01/15 04:53:48;;;;;;;;;;;;;;;3.44;100.00;100406.19;5052971;28;1941;-59
2023/01/15 04:56:15;;;;;;;;;;;;;;;3.37;100.00;100408.66;5053019;28;1064;-59
2023/01/15 04:58:41;;;;;;;;;;;;;;;3.32;100.00;100401.50;5053126;28;820;-59
2023/01/15 05:01:15;;;;;;;;;;;;;;;3.26;100.00;100398.19;5035060;28;1044;-59
2023/01/15 05:03:42;;;;;;;;;;;;;;;3.21;100.00;100405.81;5052892;28;1227;-59
2023/01/15 05:06:09;;;;;;;;;;;;;;;3.18;100.00;100403.72;5053278;28;922;-59
2023/01/15 05:08:36;;;;;;;;;;;;;;;3.16;100.00;100404.09;5053167;28;856;-59
2023/01/15 05:11:04;;;;;;;;;;;;;;;3.16;100.00;100411.47;5053219;28;808;-59
2023/01/15 05:13:32;;;;;;;;;;;;;;;3.16;100.00;100419.66;5052976;28;1914;-59
2023/01/15 05:16:28;;;;;;;;;;;;;;;3.15;100.00;100423.53;5052941;28;864;-59
2023/01/15 05:19:01;;;;;;;;;;;;;;;3.12;100.00;100427.75;5018797;28;1221;-59
2023/01/15 05:21:32;;;;;;;;;;;;;;;3.14;100.00;100419.22;5052509;28;963;-59
2023/01/15 05:24:01;;;;;;;;;;;;;;;3.14;100.00;100425.47;5053427;28;792;-59
2023/01/15 05:26:29;;;;;;;;;;;;;;;3.17;100.00;100418.53;5052640;28;952;-59
2023/01/15 05:28:57;;;;;;;;;;;;;;;3.20;100.00;100417.84;5052289;28;809;-59
2023/01/15 05:31:24;;;;;;;;;;;;;;;3.22;100.00;100426.50;5052447;28;855;-59
2023/01/15 06:02:17;;;;;;;;;;;;;;;3.25;100.00;100423.91;5323913;22;1702;-72
2023/01/15 06:04:44;;;;;;;;;;;;;;;3.30;100.00;100431.09;5092364;28;870;-75
2023/01/15 06:07:11;;;;;;;;;;;;;;;3.34;100.00;100433.94;5073901;28;1275;-73
2023/01/15 06:09:38;;;;;;;;;;;;;;;3.37;100.00;100436.81;5091918;28;905;-73
2023/01/15 06:12:04;;;;;;;;;;;;;;;3.38;100.00;100427.47;5073785;28;1221;-70
2023/01/15 06:14:31;;;;;;;;;;;;;;;3.38;100.00;100426.69;5073668;28;1918;-72
2023/01/15 06:16:57;;;;;;;;;;;;;;;3.41;100.00;100434.19;5073746;28;1400;-72
2023/01/15 06:19:26;;;;;;;;;;;;;;;3.52;100.00;100431.81;5091702;28;1156;-72
2023/01/15 06:21:52;;;;;;;;;;;;;;;3.61;100.00;100427.84;5091836;28;890;-72
2023/01/15 06:24:19;;;;;;;;;;;;;;;3.71;100.00;100425.78;5091730;28;847;-71
2023/01/15 06:26:46;;;;;;;;;;;;;;;3.70;100.00;100429.69;5091782;28;875;-74
2023/01/15 06:29:17;;;;;;;;;;;;;;;3.61;100.00;100427.06;5073738;28;851;-72
2023/01/15 06:31:44;;;;;;;;;;;;;;;3.56;100.00;100424.53;5091554;28;890;-72
2023/01/15 06:34:11;;;;;;;;;;;;;;;3.56;100.00;100422.59;5091783;28;1978;-72
2023/01/15 06:36:36;;;;;;;;;;;;;;;3.64;100.00;100418.16;5091565;28;842;-72
2023/01/15 06:39:03;;;;;;;;;;;;;;;3.71;100.00;100426.59;5090809;28;831;-73
2023/01/15 06:49:56;;;;;;;;;;;;;;;3.84;100.00;100417.28;5091366;28;1243;-72
2023/01/15 06:52:24;;;;;;;;;;;;;;;3.88;100.00;100420.09;5091428;28;891;-72
2023/01/15 06:54:51;;;;;;;;;;;;;;;3.99;100.00;100424.00;5091357;28;1909;-72
2023/01/15 06:57:18;;;;;;;;;;;;;;;4.16;100.00;100422.13;5091430;28;851;-74
2023/01/15 06:59:45;;;;;;;;;;;;;;;4.36;100.00;100413.00;5091113;28;997;-74
2023/01/15 07:02:12;;;;;;;;;;;;;;;4.56;100.00;100413.97;5091202;28;1268;-73
2023/01/15 07:04:39;;;;;;;;;;;;;;;4.74;100.00;100416.41;5091524;28;858;-72
2023/01/15 07:07:04;;;;;;;;;;;;;;;4.97;100.00;100405.69;5091225;28;851;-72
2023/01/15 07:09:31;;;;;;;;;;;;;;;5.17;100.00;100414.88;5073196;28;1145;-74
2023/01/15 07:11:58;;;;;;;;;;;;;;;5.43;100.00;100420.63;5091248;28;843;-74
2023/01/15 07:14:26;;;;;;;;;;;;;;;5.58;100.00;100423.75;5091198;28;1910;-73
2023/01/15 07:16:54;;;;;;;;;;;;;;;5.66;100.00;100420.84;5091364;28;891;-72
2023/01/15 07:19:20;;;;;;;;;;;;;;;5.80;100.00;100422.31;5091142;28;914;-73
2023/01/15 07:21:47;;;;;;;;;;;;;;;5.87;100.00;100417.81;5073096;28;1254;-75
2023/01/15 07:24:15;;;;;;;;;;;;;;;5.92;100.00;100422.22;5091183;28;848;-74
2023/01/15 07:26:42;;;;;;;;;;;;;;;5.94;100.00;100417.19;5091239;28;839;-73
2023/01/15 07:29:08;;;;;;;;;;;;;;;6.23;100.00;100415.94;5090921;28;982;-73
2023/01/15 07:31:35;;;;;;;;;;;;;;;6.92;100.00;100415.41;5091115;28;827;-74
2023/01/15 07:34:02;;;;;;;;;;;;;;;7.50;100.00;100409.78;5091012;28;1878;-74
2023/01/15 07:36:29;;;;;;;;;;;;;;;8.08;100.00;100417.00;5091017;28;823;-74
2023/01/15 07:38:55;;;;;;;;;;;;;;;8.30;100.00;100414.56;5091007;28;874;-74
2023/01/15 07:49:44;;;;;;;;;;;;;;;8.53;100.00;100417.25;5091416;28;630;-73
